Pagrindinis puslapis
METAR-TAF:

METAR-TAF

Oro uostai :

Liuleo, Švedija

platuma: 65-33N, ilguma: 022-08E, Aukštis: 17 m

Dabartinis oras

Ataskaita buvo paskelbta 13 minutes, ne 11:20 UTC
Vėjas 6 kt iš Pietvakarių
Temperatūra 4°C
Drėgmė 100%
Slėgis 1001 hPa
Matomumas 10 km arba daugiau
Su prošvaistėmis ne aukštis 400 ft

METAR: ESPA 281120Z 22006KT 9999 BKN004 04/04 Q1001

Laikas: 13:33 (11:33 UTC)

Prognozė

Ataskaita buvo paskelbta 3 valandos ir 3 minutes, ne 08:30 UTC
Prognozė galioja nuo 28 metu 09 UTC su 28 metu 18 UTC
Vėjas 5 kt iš Pietų
Matomumas 10 km arba daugiau
Apsiniaukę ne aukštis 300 ft
Tikimybė 40%
nuo 28 metu 09 UTC su 28 metu 15 UTC
Išsisklaidę debesys ne aukštis 300 ft
Tikimybė 40%
nuo 28 metu 15 UTC su 28 metu 18 UTC
Matomumas: 0300 m
rūkas

TAF: ESPA 280830Z 2809/2818 19005KT 9999 OVC003 PROB40 2809/2815 SCT003 PROB40 2815/2818 0300 FG

Orai ataskaitas ir orų prognozės (METAR, TAF).

turimą stotys yra geltonos ir raudonos taškus žemėlapyje.

Perkelti pele per norėdami pamatyti stoties vardą.

Tada spustelėkite, norėdami matyti oro stebėjimo ir prognozės.

Norėdami pakeisti žemėlapį: spustelėkite ant žalios mygtukų su juodo kryžiaus žemyn,; žalią mygtuką su brūkšneliu, jei norite nutolinti; arba žalių rodyklių gretimoms žemėlapius.


METAR-TAF: